Time,TemperatureF,DewpointF,PressureIn,WindDirection,WindDirectionDegrees,WindSpeedMPH,WindSpeedGustMPH,Humidity,HourlyPrecipIn,Conditions,Clouds,dailyrainin,SoftwareType,DateUTC
2013-09-17 00:04:00,51.3,45.7,29.68,SE,135,0.0,1.0,81,0.00,,,0.00,meteohub,2013-09-16 11:04:00,
2013-09-17 00:09:00,51.3,45.7,29.68,SE,135,0.0,1.0,81,0.00,,,0.00,meteohub,2013-09-16 11:09:00,
2013-09-17 00:14:00,51.3,45.3,29.68,SE,135,0.0,1.0,80,0.00,,,0.00,meteohub,2013-09-16 11:14:00,
2013-09-17 00:19:00,51.1,45.1,29.68,SE,135,0.0,1.0,80,0.00,,,0.00,meteohub,2013-09-16 11:19:00,
2013-09-17 00:26:00,50.9,45.3,29.69,SE,135,0.0,1.0,81,0.00,,,0.00,meteohub,2013-09-16 11:26:00,
2013-09-17 00:32:00,50.5,45.0,29.68,SE,135,0.0,0.0,81,0.00,,,0.00,meteohub,2013-09-16 11:32:00,
2013-09-17 00:38:00,50.4,44.8,29.69,SE,135,0.0,0.0,81,0.00,,,0.00,meteohub,2013-09-16 11:38:00,
2013-09-17 00:44:00,50.0,44.4,29.69,SE,135,0.0,0.0,81,0.00,,,0.00,meteohub,2013-09-16 11:44:00,
2013-09-17 00:49:00,49.8,44.6,29.69,SE,135,0.0,0.0,82,0.00,,,0.00,meteohub,2013-09-16 11:49:00,
2013-09-17 00:54:00,49.5,44.6,29.69,SE,135,0.0,0.0,83,0.00,,,0.00,meteohub,2013-09-16 11:54:00,
2013-09-17 00:59:00,49.1,44.2,29.69,SE,135,0.0,0.0,83,0.00,,,0.00,meteohub,2013-09-16 11:59:00,
2013-09-17 01:04:00,48.7,43.9,29.69,SE,135,0.0,0.0,83,0.00,,,0.00,meteohub,2013-09-16 12:04:00,
2013-09-17 01:09:00,48.6,43.9,29.69,SE,135,0.0,0.0,84,0.00,,,0.00,meteohub,2013-09-16 12:09:00,
2013-09-17 01:14:00,48.2,43.5,29.69,SE,135,0.0,0.0,84,0.00,,,0.00,meteohub,2013-09-16 12:14:00,
2013-09-17 01:20:00,48.0,44.1,29.69,SW,225,1.0,0.0,86,0.00,,,0.00,meteohub,2013-09-16 12:20:00,
2013-09-17 01:26:00,47.8,43.9,29.69,SW,225,0.0,1.0,86,0.00,,,0.00,meteohub,2013-09-16 12:26:00,
2013-09-17 01:32:00,47.7,43.7,29.69,SW,225,0.0,1.0,86,0.00,,,0.00,meteohub,2013-09-16 12:32:00,
2013-09-17 01:38:00,47.5,43.9,29.69,SW,225,0.0,1.0,87,0.00,,,0.00,meteohub,2013-09-16 12:38:00,
2013-09-17 01:44:00,47.3,43.7,29.69,SW,225,0.0,0.0,87,0.00,,,0.00,meteohub,2013-09-16 12:44:00,
2013-09-17 01:49:00,46.9,43.3,29.69,SW,225,0.0,0.0,87,0.00,,,0.00,meteohub,2013-09-16 12:49:00,
2013-09-17 01:54:00,46.8,43.2,29.69,SW,225,0.0,0.0,87,0.00,,,0.00,meteohub,2013-09-16 12:54:00,
2013-09-17 01:59:00,46.6,43.2,29.69,SW,225,0.0,1.0,88,0.00,,,0.00,meteohub,2013-09-16 12:59:00,
2013-09-17 02:04:00,46.6,43.2,29.70,SW,225,0.0,1.0,88,0.00,,,0.00,meteohub,2013-09-16 13:04:00,
2013-09-17 02:09:00,46.6,43.5,29.69,SW,225,0.0,1.0,89,0.00,,,0.00,meteohub,2013-09-16 13:09:00,
2013-09-17 02:14:00,46.4,43.3,29.69,SW,225,0.0,0.0,89,0.00,,,0.00,meteohub,2013-09-16 13:14:00,
2013-09-17 02:19:00,46.0,43.0,29.69,SW,225,0.0,0.0,89,0.00,,,0.00,meteohub,2013-09-16 13:19:00,
2013-09-17 02:24:00,46.2,43.7,29.70,SW,225,1.0,0.0,91,0.00,,,0.00,meteohub,2013-09-16 13:24:00,
2013-09-17 02:29:00,46.4,44.4,29.69,SW,225,0.0,1.0,93,0.00,,,0.00,meteohub,2013-09-16 13:29:00,
2013-09-17 02:34:00,46.4,44.8,29.69,SW,225,0.0,1.0,94,0.00,,,0.00,meteohub,2013-09-16 13:34:00,
2013-09-17 02:39:00,46.0,44.4,29.69,SW,225,0.0,1.0,94,0.00,,,0.00,meteohub,2013-09-16 13:39:00,
2013-09-17 02:44:00,45.9,44.2,29.70,NW,315,0.0,1.0,94,0.00,,,0.00,meteohub,2013-09-16 13:44:00,
2013-09-17 02:49:00,45.9,44.2,29.69,West,270,0.0,1.0,94,0.00,,,0.00,meteohub,2013-09-16 13:49:00,
2013-09-17 02:54:00,46.0,44.6,29.69,SW,225,0.0,1.0,95,0.00,,,0.00,meteohub,2013-09-16 13:54:00,
2013-09-17 02:59:00,46.4,44.8,29.69,SE,135,2.0,2.0,94,0.00,,,0.00,meteohub,2013-09-16 13:59:00,
2013-09-17 03:04:00,46.8,45.3,29.70,SW,225,1.0,2.0,95,0.00,,,0.00,meteohub,2013-09-16 14:04:00,
2013-09-17 03:09:00,47.1,45.7,29.69,WNW,293,2.0,2.0,95,0.00,,,0.00,meteohub,2013-09-16 14:09:00,
2013-09-17 03:14:00,47.7,46.2,29.70,SW,225,2.0,2.0,95,0.00,,,0.00,meteohub,2013-09-16 14:14:00,
2013-09-17 03:19:00,47.7,46.2,29.70,SW,225,1.0,2.0,95,0.00,,,0.00,meteohub,2013-09-16 14:19:00,
2013-09-17 03:24:00,48.2,46.6,29.70,South,180,2.0,2.0,94,0.00,,,0.00,meteohub,2013-09-16 14:24:00,
2013-09-17 03:29:00,48.6,46.6,29.70,East,90,2.0,2.0,93,0.00,,,0.00,meteohub,2013-09-16 14:29:00,
2013-09-17 03:34:00,48.7,46.8,29.70,SW,225,0.0,3.0,93,0.00,,,0.00,meteohub,2013-09-16 14:34:00,
2013-09-17 03:39:00,48.7,46.6,29.70,SW,225,2.0,3.0,92,0.00,,,0.00,meteohub,2013-09-16 14:39:00,
2013-09-17 03:44:00,49.1,46.9,29.70,SE,135,1.0,3.0,92,0.00,,,0.00,meteohub,2013-09-16 14:44:00,
2013-09-17 03:49:00,49.3,47.1,29.70,SW,225,0.0,3.0,92,0.00,,,0.00,meteohub,2013-09-16 14:49:00,
2013-09-17 03:54:00,49.6,47.1,29.70,SW,225,2.0,3.0,91,0.00,,,0.00,meteohub,2013-09-16 14:54:00,
2013-09-17 03:59:00,50.0,47.1,29.70,SW,225,1.0,2.0,90,0.00,,,0.00,meteohub,2013-09-16 14:59:00,
2013-09-17 04:04:00,50.0,47.1,29.70,SE,135,0.0,2.0,90,0.00,,,0.00,meteohub,2013-09-16 15:04:00,
2013-09-17 04:09:00,50.4,47.5,29.70,South,180,1.0,2.0,90,0.00,,,0.00,meteohub,2013-09-16 15:09:00,
2013-09-17 04:14:00,50.5,47.7,29.70,SW,225,1.0,2.0,90,0.00,,,0.00,meteohub,2013-09-16 15:14:00,
2013-09-17 04:19:00,51.1,48.0,29.70,South,180,0.0,3.0,89,0.00,,,0.00,meteohub,2013-09-16 15:19:00,
2013-09-17 04:24:00,51.3,47.8,29.70,SE,135,1.0,3.0,88,0.00,,,0.00,meteohub,2013-09-16 15:24:00,
2013-09-17 04:29:00,51.4,48.0,29.70,West,270,4.0,4.0,88,0.00,,,0.00,meteohub,2013-09-16 15:29:00,
2013-09-17 04:34:00,51.8,47.7,29.70,South,180,1.0,4.0,86,0.00,,,0.00,meteohub,2013-09-16 15:34:00,
2013-09-17 04:39:00,52.2,48.0,29.70,SW,225,1.0,4.0,86,0.00,,,0.00,meteohub,2013-09-16 15:39:00,
2013-09-17 04:44:00,52.5,48.2,29.70,West,270,4.0,4.0,85,0.00,,,0.00,meteohub,2013-09-16 15:44:00,
2013-09-17 04:49:00,52.7,48.0,29.70,WNW,293,3.0,5.0,84,0.00,,,0.00,meteohub,2013-09-16 15:49:00,
2013-09-17 04:54:00,53.1,48.0,29.70,North,0,2.0,5.0,83,0.00,,,0.00,meteohub,2013-09-16 15:54:00,
2013-09-17 04:59:00,53.4,48.4,29.70,West,270,3.0,5.0,83,0.00,,,0.00,meteohub,2013-09-16 15:59:00,
2013-09-17 05:04:00,53.4,48.4,29.70,East,90,1.0,3.0,83,0.00,,,0.00,meteohub,2013-09-16 16:04:00,
2013-09-17 05:09:00,54.3,48.6,29.70,SW,225,0.0,3.0,81,0.00,,,0.00,meteohub,2013-09-16 16:09:00,
2013-09-17 05:14:00,54.9,48.7,29.70,WNW,293,2.0,3.0,80,0.00,,,0.00,meteohub,2013-09-16 16:14:00,
2013-09-17 05:19:00,55.4,48.9,29.70,SSW,203,1.0,2.0,79,0.00,,,0.00,meteohub,2013-09-16 16:19:00,
2013-09-17 05:24:00,55.9,49.5,29.71,SW,225,4.0,4.0,79,0.00,,,0.00,meteohub,2013-09-16 16:24:00,
2013-09-17 05:29:00,56.5,49.3,29.71,SW,225,1.0,4.0,77,0.00,,,0.00,meteohub,2013-09-16 16:29:00,
2013-09-17 05:34:00,56.7,49.1,29.70,SW,225,1.0,4.0,76,0.00,,,0.00,meteohub,2013-09-16 16:34:00,
2013-09-17 05:39:00,57.4,49.5,29.70,SE,135,1.0,4.0,75,0.00,,,0.00,meteohub,2013-09-16 16:39:00,
2013-09-17 05:44:00,59.0,50.4,29.71,South,180,2.0,3.0,73,0.00,,,0.00,meteohub,2013-09-16 16:44:00,
2013-09-17 05:49:00,60.4,51.1,29.70,East,90,1.0,2.0,71,0.00,,,0.00,meteohub,2013-09-16 16:49:00,
2013-09-17 05:54:00,61.9,51.3,29.71,SE,135,2.0,2.0,68,0.00,,,0.00,meteohub,2013-09-16 16:54:00,
2013-09-17 05:59:00,63.0,51.1,29.70,SE,135,2.0,4.0,65,0.00,,,0.00,meteohub,2013-09-16 16:59:00,
2013-09-17 06:04:00,63.9,51.1,29.70,East,90,2.0,5.0,63,0.00,,,0.00,meteohub,2013-09-16 17:04:00,
2013-09-17 06:09:00,64.8,51.8,29.70,South,180,2.0,5.0,63,0.00,,,0.00,meteohub,2013-09-16 17:09:00,
2013-09-17 06:14:00,65.5,52.2,29.70,WSW,248,3.0,5.0,62,0.00,,,0.00,meteohub,2013-09-16 17:14:00,
2013-09-17 06:19:00,66.4,52.2,29.70,SE,135,2.0,4.0,60,0.00,,,0.00,meteohub,2013-09-16 17:19:00,
2013-09-17 06:24:00,67.1,52.3,29.70,SE,135,3.0,5.0,59,0.00,,,0.00,meteohub,2013-09-16 17:24:00,
2013-09-17 06:29:00,67.6,52.3,29.70,SE,135,2.0,5.0,58,0.00,,,0.00,meteohub,2013-09-16 17:29:00,
2013-09-17 06:34:00,68.0,51.3,29.71,SE,135,2.0,5.0,55,0.00,,,0.00,meteohub,2013-09-16 17:34:00,
2013-09-17 06:39:00,67.8,51.1,29.71,SE,135,2.0,3.0,55,0.00,,,0.00,meteohub,2013-09-16 17:39:00,
2013-09-17 06:44:00,68.4,51.1,29.71,SE,135,2.0,4.0,54,0.00,,,0.00,meteohub,2013-09-16 17:44:00,
2013-09-17 06:49:00,68.5,51.3,29.71,NNE,23,1.0,8.0,54,0.00,,,0.00,meteohub,2013-09-16 17:49:00,
2013-09-17 06:54:00,68.7,51.4,29.70,SE,135,1.0,8.0,54,0.00,,,0.00,meteohub,2013-09-16 17:54:00,
2013-09-17 06:59:00,68.7,52.0,29.70,South,180,3.0,8.0,55,0.00,,,0.00,meteohub,2013-09-16 17:59:00,
2013-09-17 07:04:00,68.7,51.4,29.70,SE,135,3.0,4.0,54,0.00,,,0.00,meteohub,2013-09-16 18:04:00,
2013-09-17 07:09:00,69.3,50.9,29.70,SW,225,1.0,3.0,52,0.00,,,0.00,meteohub,2013-09-16 18:09:00,
2013-09-17 07:14:00,69.8,51.4,29.70,East,90,2.0,3.0,52,0.00,,,0.00,meteohub,2013-09-16 18:14:00,
2013-09-17 07:19:00,70.5,51.4,29.71,NE,45,2.0,3.0,51,0.00,,,0.00,meteohub,2013-09-16 18:19:00,
2013-09-17 07:24:00,70.2,50.7,29.70,South,180,2.0,3.0,50,0.00,,,0.00,meteohub,2013-09-16 18:24:00,
2013-09-17 07:29:00,70.5,50.9,29.70,SW,225,2.0,4.0,50,0.00,,,0.00,meteohub,2013-09-16 18:29:00,
2013-09-17 07:34:00,70.5,51.4,29.70,South,180,2.0,4.0,51,0.00,,,0.00,meteohub,2013-09-16 18:34:00,
2013-09-17 07:39:00,70.9,50.7,29.70,SE,135,2.0,4.0,49,0.00,,,0.00,meteohub,2013-09-16 18:39:00,
2013-09-17 07:44:00,71.4,51.8,29.70,SE,135,2.0,4.0,50,0.00,,,0.00,meteohub,2013-09-16 18:44:00,
2013-09-17 07:49:00,71.8,51.6,29.70,South,180,1.0,4.0,49,0.00,,,0.00,meteohub,2013-09-16 18:49:00,
2013-09-17 07:54:00,71.6,50.9,29.70,SE,135,2.0,2.0,48,0.00,,,0.00,meteohub,2013-09-16 18:54:00,
2013-09-17 07:59:00,71.8,51.1,29.70,NNW,338,1.0,4.0,48,0.00,,,0.00,meteohub,2013-09-16 18:59:00,
2013-09-17 08:04:00,72.0,49.5,29.70,South,180,2.0,4.0,45,0.00,,,0.00,meteohub,2013-09-16 19:04:00,
2013-09-17 08:09:00,71.8,49.8,29.71,SW,225,2.0,4.0,46,0.00,,,0.00,meteohub,2013-09-16 19:09:00,
2013-09-17 08:14:00,71.4,50.2,29.70,SE,135,2.0,4.0,47,0.00,,,0.00,meteohub,2013-09-16 19:14:00,
2013-09-17 08:19:00,71.2,49.5,29.70,East,90,3.0,4.0,46,0.00,,,0.00,meteohub,2013-09-16 19:19:00,
2013-09-17 08:24:00,70.5,47.5,29.70,North,0,2.0,4.0,44,0.00,,,0.00,meteohub,2013-09-16 19:24:00,
2013-09-17 08:29:00,70.3,49.1,29.70,SW,225,2.0,4.0,47,0.00,,,0.00,meteohub,2013-09-16 19:29:00,
2013-09-17 08:34:00,70.0,49.5,29.70,SE,135,1.0,4.0,48,0.00,,,0.00,meteohub,2013-09-16 19:34:00,
2013-09-17 08:39:00,70.0,48.7,29.70,South,180,4.0,4.0,47,0.00,,,0.00,meteohub,2013-09-16 19:39:00,
2013-09-17 08:44:00,69.4,47.1,29.70,SSW,203,4.0,4.0,45,0.00,,,0.00,meteohub,2013-09-16 19:44:00,
2013-09-17 08:49:00,68.9,48.9,29.69,SW,225,2.0,4.0,49,0.00,,,0.00,meteohub,2013-09-16 19:49:00,
2013-09-17 08:54:00,68.7,47.7,29.70,NE,45,3.0,4.0,47,0.00,,,0.00,meteohub,2013-09-16 19:54:00,
2013-09-17 08:59:00,68.7,48.2,29.69,NE,45,0.0,4.0,48,0.00,,,0.00,meteohub,2013-09-16 19:59:00,
2013-09-17 09:04:00,68.7,48.7,29.69,NW,315,1.0,4.0,49,0.00,,,0.00,meteohub,2013-09-16 20:04:00,
2013-09-17 09:09:00,69.3,50.4,29.69,North,0,2.0,4.0,51,0.00,,,0.00,meteohub,2013-09-16 20:09:00,
2013-09-17 09:14:00,69.6,50.7,29.69,North,0,4.0,4.0,51,0.00,,,0.00,meteohub,2013-09-16 20:14:00,
2013-09-17 09:19:00,69.6,50.7,29.69,NE,45,5.0,7.0,51,0.00,,,0.00,meteohub,2013-09-16 20:19:00,
2013-09-17 09:24:00,69.1,49.6,29.69,NNE,23,4.0,8.0,50,0.00,,,0.00,meteohub,2013-09-16 20:24:00,
2013-09-17 09:29:00,68.9,50.0,29.69,North,0,2.0,8.0,51,0.00,,,0.00,meteohub,2013-09-16 20:29:00,
2013-09-17 09:34:00,68.4,49.5,29.69,NNE,23,4.0,8.0,51,0.00,,,0.00,meteohub,2013-09-16 20:34:00,
2013-09-17 09:39:00,68.4,49.5,29.69,East,90,2.0,8.0,51,0.00,,,0.00,meteohub,2013-09-16 20:39:00,
2013-09-17 09:44:00,68.0,49.3,29.69,NE,45,1.0,8.0,51,0.00,,,0.00,meteohub,2013-09-16 20:44:00,
2013-09-17 09:49:00,67.6,49.5,29.69,NNE,23,4.0,6.0,52,0.00,,,0.00,meteohub,2013-09-16 20:49:00,
2013-09-17 09:54:00,67.1,49.5,29.68,NE,45,2.0,6.0,53,0.00,,,0.00,meteohub,2013-09-16 20:54:00,
2013-09-17 09:59:00,67.1,48.9,29.68,North,0,3.0,6.0,52,0.00,,,0.00,meteohub,2013-09-16 20:59:00,
2013-09-17 10:04:00,67.1,49.5,29.68,East,90,2.0,5.0,53,0.00,,,0.00,meteohub,2013-09-16 21:04:00,
2013-09-17 10:09:00,67.1,49.8,29.68,NE,45,3.0,5.0,54,0.00,,,0.00,meteohub,2013-09-16 21:09:00,
2013-09-17 10:14:00,67.8,50.0,29.68,East,90,4.0,4.0,53,0.00,,,0.00,meteohub,2013-09-16 21:14:00,
2013-09-17 10:19:00,68.0,49.3,29.67,NE,45,4.0,4.0,51,0.00,,,0.00,meteohub,2013-09-16 21:19:00,
2013-09-17 10:24:00,68.0,49.3,29.67,East,90,7.0,7.0,51,0.00,,,0.00,meteohub,2013-09-16 21:24:00,
2013-09-17 10:29:00,68.0,49.3,29.68,North,0,4.0,7.0,51,0.00,,,0.00,meteohub,2013-09-16 21:29:00,
2013-09-17 10:34:00,68.0,49.3,29.67,NE,45,1.0,7.0,51,0.00,,,0.00,meteohub,2013-09-16 21:34:00,
2013-09-17 10:39:00,67.6,49.5,29.67,NE,45,7.0,7.0,52,0.00,,,0.00,meteohub,2013-09-16 21:39:00,
2013-09-17 10:44:00,67.5,49.3,29.67,NNE,23,4.0,9.0,52,0.00,,,0.00,meteohub,2013-09-16 21:44:00,
2013-09-17 10:49:00,67.6,49.5,29.67,North,0,2.0,9.0,52,0.00,,,0.00,meteohub,2013-09-16 21:49:00,
2013-09-17 10:54:00,68.0,49.3,29.67,NNE,23,2.0,9.0,51,0.00,,,0.00,meteohub,2013-09-16 21:54:00,
2013-09-17 10:59:00,68.2,49.3,29.66,North,0,4.0,8.0,51,0.00,,,0.00,meteohub,2013-09-16 21:59:00,
2013-09-17 11:04:00,68.0,49.3,29.67,SW,225,3.0,8.0,51,0.00,,,0.00,meteohub,2013-09-16 22:04:00,
2013-09-17 11:09:00,67.8,49.6,29.67,NW,315,4.0,8.0,52,0.00,,,0.00,meteohub,2013-09-16 22:09:00,
2013-09-17 11:14:00,67.6,49.5,29.67,East,90,2.0,4.0,52,0.00,,,0.00,meteohub,2013-09-16 22:14:00,
2013-09-17 11:19:00,67.5,50.2,29.67,South,180,1.0,4.0,54,0.00,,,0.00,meteohub,2013-09-16 22:19:00,
2013-09-17 11:24:00,67.8,51.1,29.67,NW,315,1.0,4.0,55,0.00,,,0.00,meteohub,2013-09-16 22:24:00,
2013-09-17 11:29:00,68.4,50.0,29.67,ENE,68,2.0,3.0,52,0.00,,,0.00,meteohub,2013-09-16 22:29:00,
2013-09-17 11:34:00,68.5,50.2,29.67,West,270,1.0,3.0,52,0.00,,,0.00,meteohub,2013-09-16 22:34:00,
2013-09-17 11:39:00,68.2,49.8,29.67,NNE,23,5.0,5.0,52,0.00,,,0.00,meteohub,2013-09-16 22:39:00,
2013-09-17 11:44:00,68.0,49.6,29.67,East,90,1.0,5.0,52,0.00,,,0.00,meteohub,2013-09-16 22:44:00,
2013-09-17 11:49:00,68.4,50.5,29.67,NE,45,2.0,5.0,53,0.00,,,0.00,meteohub,2013-09-16 22:49:00,
2013-09-17 11:54:00,68.9,50.5,29.67,NW,315,1.0,5.0,52,0.00,,,0.00,meteohub,2013-09-16 22:54:00,
2013-09-17 11:59:00,68.7,49.8,29.66,NE,45,2.0,2.0,51,0.00,,,0.00,meteohub,2013-09-16 22:59:00,
2013-09-17 12:04:00,69.3,50.4,29.66,NNE,23,1.0,2.0,51,0.00,,,0.00,meteohub,2013-09-16 23:04:00,
2013-09-17 12:09:00,69.8,50.4,29.66,East,90,2.0,3.0,50,0.00,,,0.00,meteohub,2013-09-16 23:09:00,
2013-09-17 12:14:00,70.2,50.2,29.66,SE,135,2.0,3.0,49,0.00,,,0.00,meteohub,2013-09-16 23:14:00,
2013-09-17 12:19:00,69.8,49.8,29.66,NE,45,2.0,4.0,49,0.00,,,0.00,meteohub,2013-09-16 23:19:00,
2013-09-17 12:24:00,69.8,50.4,29.66,NNE,23,1.0,4.0,50,0.00,,,0.00,meteohub,2013-09-16 23:24:00,
2013-09-17 12:29:00,70.0,50.0,29.66,NNW,338,4.0,4.0,49,0.00,,,0.00,meteohub,2013-09-16 23:29:00,
2013-09-17 12:34:00,70.3,50.4,29.66,SW,225,3.0,4.0,49,0.00,,,0.00,meteohub,2013-09-16 23:34:00,
2013-09-17 12:39:00,70.2,50.2,29.66,NNE,23,6.0,6.0,49,0.00,,,0.00,meteohub,2013-09-16 23:39:00,
2013-09-17 12:44:00,69.8,49.3,29.67,NE,45,5.0,8.0,48,0.00,,,0.00,meteohub,2013-09-16 23:44:00,
2013-09-17 12:49:00,68.9,49.5,29.66,East,90,4.0,8.0,50,0.00,,,0.00,meteohub,2013-09-16 23:49:00,
2013-09-17 12:54:00,68.0,48.7,29.66,NE,45,1.0,8.0,50,0.00,,,0.00,meteohub,2013-09-16 23:54:00,
2013-09-17 12:59:00,67.5,49.8,29.66,North,0,2.0,5.0,53,0.00,,,0.00,meteohub,2013-09-16 23:59:00,
2013-09-17 13:04:00,67.5,49.3,29.66,NW,315,2.0,4.0,52,0.00,,,0.00,meteohub,2013-09-17 00:04:00,
2013-09-17 13:09:00,66.6,48.4,29.66,North,0,2.0,4.0,52,0.00,,,0.00,meteohub,2013-09-17 00:09:00,
2013-09-17 13:14:00,66.0,48.9,29.66,North,0,1.0,2.0,54,0.00,,,0.00,meteohub,2013-09-17 00:14:00,
2013-09-17 13:19:00,65.7,49.1,29.66,NNE,23,1.0,2.0,55,0.00,,,0.00,meteohub,2013-09-17 00:19:00,
2013-09-17 13:24:00,65.1,49.1,29.66,East,90,2.0,2.0,56,0.00,,,0.00,meteohub,2013-09-17 00:24:00,
2013-09-17 13:29:00,64.9,48.9,29.66,NE,45,1.0,2.0,56,0.00,,,0.00,meteohub,2013-09-17 00:29:00,
2013-09-17 13:34:00,64.4,48.4,29.66,North,0,1.0,2.0,56,0.00,,,0.00,meteohub,2013-09-17 00:34:00,
2013-09-17 13:39:00,63.9,48.4,29.66,North,0,2.0,2.0,57,0.00,,,0.00,meteohub,2013-09-17 00:39:00,
2013-09-17 13:44:00,63.5,48.0,29.66,NE,45,1.0,3.0,57,0.00,,,0.00,meteohub,2013-09-17 00:44:00,
2013-09-17 13:49:00,63.1,48.2,29.66,East,90,1.0,3.0,58,0.00,,,0.00,meteohub,2013-09-17 00:49:00,
2013-09-17 13:54:00,62.8,47.8,29.66,SE,135,1.0,3.0,58,0.00,,,0.00,meteohub,2013-09-17 00:54:00,
2013-09-17 13:59:00,62.4,47.8,29.66,NE,45,1.0,2.0,59,0.00,,,0.00,meteohub,2013-09-17 00:59:00,
2013-09-17 14:04:00,62.2,47.7,29.66,NW,315,0.0,2.0,59,0.00,,,0.00,meteohub,2013-09-17 01:04:00,
2013-09-17 14:09:00,61.9,47.8,29.66,NW,315,1.0,2.0,60,0.00,,,0.00,meteohub,2013-09-17 01:09:00,
2013-09-17 14:14:00,61.7,47.7,29.66,NE,45,1.0,2.0,60,0.00,,,0.00,meteohub,2013-09-17 01:14:00,
2013-09-17 14:19:00,61.3,47.3,29.66,SE,135,1.0,2.0,60,0.00,,,0.00,meteohub,2013-09-17 01:19:00,
2013-09-17 14:24:00,61.0,46.9,29.66,NE,45,1.0,2.0,60,0.00,,,0.00,meteohub,2013-09-17 01:24:00,
2013-09-17 14:29:00,60.8,47.3,29.66,North,0,0.0,2.0,61,0.00,,,0.00,meteohub,2013-09-17 01:29:00,
2013-09-17 14:34:00,60.4,47.3,29.66,NE,45,0.0,1.0,62,0.00,,,0.00,meteohub,2013-09-17 01:34:00,
2013-09-17 14:36:00,53.4,45.7,29.68,NE,45,0.0,0.0,75,0.00,,,0.00,meteohub,2013-09-17 01:36:00,
2013-09-17 14:37:00,53.4,45.7,29.68,NE,45,0.0,0.0,75,0.00,,,0.00,meteohub,2013-09-17 01:37:00,
2013-09-17 14:39:00,60.1,46.9,29.66,NE,45,0.0,1.0,62,0.00,,,0.00,meteohub,2013-09-17 01:39:00,
2013-09-17 14:42:00,53.2,45.5,29.68,NE,45,0.0,0.0,75,0.00,,,0.00,meteohub,2013-09-17 01:42:00,
2013-09-17 14:44:00,59.9,47.3,29.66,NE,45,0.0,1.0,63,0.00,,,0.00,meteohub,2013-09-17 01:44:00,
2013-09-17 14:45:00,53.1,45.3,29.67,NE,45,0.0,0.0,75,0.00,,,0.00,meteohub,2013-09-17 01:45:00,
2013-09-17 14:47:00,52.9,45.1,29.68,NE,45,0.0,0.0,75,0.00,,,0.00,meteohub,2013-09-17 01:47:00,
2013-09-17 14:48:00,52.9,45.5,29.68,NE,45,0.0,0.0,76,0.00,,,0.00,meteohub,2013-09-17 01:48:00,
2013-09-17 14:49:00,59.5,46.9,29.66,NE,45,0.0,1.0,63,0.00,,,0.00,meteohub,2013-09-17 01:49:00,
2013-09-17 14:51:00,52.9,45.5,29.68,NE,45,0.0,0.0,76,0.00,,,0.00,meteohub,2013-09-17 01:51:00,
2013-09-17 14:52:00,52.9,45.5,29.68,NE,45,0.0,0.0,76,0.00,,,0.00,meteohub,2013-09-17 01:52:00,
2013-09-17 14:54:00,59.2,46.9,29.66,NE,45,0.0,1.0,64,0.00,,,0.00,meteohub,2013-09-17 01:54:00,
2013-09-17 14:57:00,52.9,45.5,29.67,NE,45,0.0,0.0,76,0.00,,,0.00,meteohub,2013-09-17 01:57:00,
2013-09-17 14:59:00,59.0,46.8,29.66,NW,315,0.0,1.0,64,0.00,,,0.00,meteohub,2013-09-17 01:59:00,
2013-09-17 15:00:00,52.3,45.0,29.67,NE,45,0.0,0.0,76,0.00,,,0.00,meteohub,2013-09-17 02:00:00,
2013-09-17 15:02:00,52.2,44.8,29.67,NE,45,0.0,0.0,76,0.00,,,0.00,meteohub,2013-09-17 02:02:00,
2013-09-17 15:03:00,52.2,44.8,29.67,NE,45,0.0,0.0,76,0.00,,,0.00,meteohub,2013-09-17 02:03:00,
2013-09-17 15:04:00,59.0,46.8,29.66,NW,315,0.0,1.0,64,0.00,,,0.00,meteohub,2013-09-17 02:04:00,
2013-09-17 15:06:00,52.0,45.0,29.67,NE,45,0.0,0.0,77,0.00,,,0.00,meteohub,2013-09-17 02:06:00,
2013-09-17 15:07:00,52.0,45.0,29.67,NE,45,0.0,0.0,77,0.00,,,0.00,meteohub,2013-09-17 02:07:00,
2013-09-17 15:09:00,58.5,46.8,29.66,North,0,0.0,0.0,65,0.00,,,0.00,meteohub,2013-09-17 02:09:00,
2013-09-17 15:12:00,51.8,44.8,29.67,NE,45,0.0,0.0,77,0.00,,,0.00,meteohub,2013-09-17 02:12:00,
2013-09-17 15:14:00,58.3,46.9,29.66,North,0,0.0,0.0,66,0.00,,,0.00,meteohub,2013-09-17 02:14:00,
2013-09-17 15:15:00,51.6,45.3,29.66,NE,45,0.0,0.0,79,0.00,,,0.00,meteohub,2013-09-17 02:15:00,
2013-09-17 15:17:00,51.4,45.1,29.67,NE,45,0.0,0.0,79,0.00,,,0.00,meteohub,2013-09-17 02:17:00,
2013-09-17 15:18:00,51.4,45.1,29.66,NE,45,0.0,0.0,79,0.00,,,0.00,meteohub,2013-09-17 02:18:00,
2013-09-17 15:19:00,57.9,46.6,29.66,West,270,0.0,0.0,66,0.00,,,0.00,meteohub,2013-09-17 02:19:00,
2013-09-17 15:22:00,51.3,45.0,29.66,NE,45,0.0,0.0,79,0.00,,,0.00,meteohub,2013-09-17 02:22:00,
2013-09-17 15:24:00,57.7,46.9,29.66,West,270,0.0,0.0,67,0.00,,,0.00,meteohub,2013-09-17 02:24:00,
2013-09-17 15:25:00,51.1,45.1,29.67,NE,45,0.0,0.0,80,0.00,,,0.00,meteohub,2013-09-17 02:25:00,
2013-09-17 15:27:00,50.9,45.0,29.67,East,90,0.0,0.0,80,0.00,,,0.00,meteohub,2013-09-17 02:27:00,
2013-09-17 15:28:00,50.9,45.0,29.67,East,90,0.0,0.0,80,0.00,,,0.00,meteohub,2013-09-17 02:28:00,
2013-09-17 15:29:00,57.4,47.3,29.66,West,270,0.0,0.0,69,0.00,,,0.00,meteohub,2013-09-17 02:29:00,
2013-09-17 15:31:00,50.7,44.8,29.67,East,90,0.0,0.0,80,0.00,,,0.00,meteohub,2013-09-17 02:31:00,
2013-09-17 15:32:00,50.5,44.6,29.66,East,90,0.0,0.0,80,0.00,,,0.00,meteohub,2013-09-17 02:32:00,
2013-09-17 15:34:00,56.8,47.5,29.66,West,270,0.0,0.0,71,0.00,,,0.00,meteohub,2013-09-17 02:34:00,
2013-09-17 15:37:00,50.4,44.4,29.67,East,90,0.0,0.0,80,0.00,,,0.00,meteohub,2013-09-17 02:37:00,
2013-09-17 15:39:00,56.5,47.5,29.66,West,270,0.0,0.0,72,0.00,,,0.00,meteohub,2013-09-17 02:39:00,
2013-09-17 15:40:00,50.2,44.2,29.66,East,90,0.0,0.0,80,0.00,,,0.00,meteohub,2013-09-17 02:40:00,
2013-09-17 15:42:00,50.0,44.1,29.66,East,90,0.0,0.0,80,0.00,,,0.00,meteohub,2013-09-17 02:42:00,
2013-09-17 15:43:00,50.0,44.1,29.66,East,90,0.0,0.0,80,0.00,,,0.00,meteohub,2013-09-17 02:43:00,
2013-09-17 15:44:00,56.3,47.5,29.66,NW,315,0.0,0.0,72,0.00,,,0.00,meteohub,2013-09-17 02:44:00,
2013-09-17 15:46:00,49.8,44.2,29.67,East,90,0.0,0.0,81,0.00,,,0.00,meteohub,2013-09-17 02:46:00,
2013-09-17 15:47:00,49.6,44.1,29.66,East,90,0.0,0.0,81,0.00,,,0.00,meteohub,2013-09-17 02:47:00,
2013-09-17 15:49:00,55.9,47.1,29.66,East,90,0.0,0.0,72,0.00,,,0.00,meteohub,2013-09-17 02:49:00,
2013-09-17 15:52:00,49.5,43.9,29.66,East,90,0.0,0.0,81,0.00,,,0.00,meteohub,2013-09-17 02:52:00,
2013-09-17 15:54:00,55.8,46.9,29.66,NW,315,0.0,1.0,72,0.00,,,0.00,meteohub,2013-09-17 02:54:00,
2013-09-17 15:55:00,49.3,44.1,29.66,East,90,0.0,0.0,82,0.00,,,0.00,meteohub,2013-09-17 02:55:00,
2013-09-17 15:57:00,49.1,43.9,29.66,East,90,0.0,0.0,82,0.00,,,0.00,meteohub,2013-09-17 02:57:00,
2013-09-17 15:58:00,49.1,43.9,29.66,East,90,0.0,0.0,82,0.00,,,0.00,meteohub,2013-09-17 02:58:00,
2013-09-17 15:59:00,55.8,46.9,29.66,NW,315,0.0,1.0,72,0.00,,,0.00,meteohub,2013-09-17 02:59:00,
2013-09-17 16:01:00,48.9,43.7,29.66,East,90,0.0,0.0,82,0.00,,,0.00,meteohub,2013-09-17 03:01:00,
2013-09-17 16:02:00,48.9,43.7,29.66,East,90,0.0,0.0,82,0.00,,,0.00,meteohub,2013-09-17 03:02:00,
2013-09-17 16:04:00,55.4,46.6,29.66,NW,315,0.0,1.0,72,0.00,,,0.00,meteohub,2013-09-17 03:04:00,
2013-09-17 16:07:00,48.7,43.9,29.66,East,90,0.0,0.0,83,0.00,,,0.00,meteohub,2013-09-17 03:07:00,
2013-09-17 16:09:00,55.4,46.6,29.67,NW,315,0.0,1.0,72,0.00,,,0.00,meteohub,2013-09-17 03:09:00,
2013-09-17 16:10:00,48.6,43.7,29.66,East,90,0.0,0.0,83,0.00,,,0.00,meteohub,2013-09-17 03:10:00,
2013-09-17 16:12:00,48.6,43.7,29.66,East,90,0.0,0.0,83,0.00,,,0.00,meteohub,2013-09-17 03:12:00,
2013-09-17 16:13:00,48.6,43.7,29.66,East,90,0.0,0.0,83,0.00,,,0.00,meteohub,2013-09-17 03:13:00,
2013-09-17 16:14:00,55.2,46.0,29.67,NW,315,0.0,0.0,71,0.00,,,0.00,meteohub,2013-09-17 03:14:00,
2013-09-17 16:16:00,48.4,43.5,29.66,East,90,0.0,0.0,83,0.00,,,0.00,meteohub,2013-09-17 03:16:00,
2013-09-17 16:17:00,48.4,43.5,29.66,East,90,0.0,0.0,83,0.00,,,0.00,meteohub,2013-09-17 03:17:00,
2013-09-17 16:19:00,54.9,46.0,29.67,NE,45,0.0,0.0,72,0.00,,,0.00,meteohub,2013-09-17 03:19:00,
2013-09-17 16:22:00,48.2,43.5,29.66,East,90,0.0,0.0,84,0.00,,,0.00,meteohub,2013-09-17 03:22:00,
2013-09-17 16:24:00,54.7,45.9,29.67,NE,45,0.0,0.0,72,0.00,,,0.00,meteohub,2013-09-17 03:24:00,
2013-09-17 16:25:00,48.0,43.7,29.66,East,90,0.0,0.0,85,0.00,,,0.00,meteohub,2013-09-17 03:25:00,
2013-09-17 16:27:00,48.0,43.7,29.66,East,90,0.0,0.0,85,0.00,,,0.00,meteohub,2013-09-17 03:27:00,
2013-09-17 16:28:00,48.0,43.7,29.66,East,90,0.0,0.0,85,0.00,,,0.00,meteohub,2013-09-17 03:28:00,
2013-09-17 16:29:00,54.5,45.7,29.67,NE,45,0.0,0.0,72,0.00,,,0.00,meteohub,2013-09-17 03:29:00,
2013-09-17 16:31:00,47.8,43.5,29.66,East,90,0.0,0.0,85,0.00,,,0.00,meteohub,2013-09-17 03:31:00,
2013-09-17 16:32:00,47.8,43.5,29.66,East,90,0.0,0.0,85,0.00,,,0.00,meteohub,2013-09-17 03:32:00,
2013-09-17 16:34:00,54.3,45.9,29.68,NE,45,0.0,0.0,73,0.00,,,0.00,meteohub,2013-09-17 03:34:00,
2013-09-17 16:37:00,47.8,43.5,29.66,East,90,0.0,0.0,85,0.00,,,0.00,meteohub,2013-09-17 03:37:00,
2013-09-17 16:39:00,54.1,45.7,29.68,NE,45,0.0,0.0,73,0.00,,,0.00,meteohub,2013-09-17 03:39:00,
2013-09-17 16:40:00,47.8,43.5,29.66,East,90,0.0,0.0,85,0.00,,,0.00,meteohub,2013-09-17 03:40:00,
2013-09-17 16:42:00,47.5,43.2,29.66,East,90,0.0,0.0,85,0.00,,,0.00,meteohub,2013-09-17 03:42:00,
2013-09-17 16:43:00,47.5,43.5,29.66,East,90,0.0,0.0,86,0.00,,,0.00,meteohub,2013-09-17 03:43:00,
2013-09-17 16:44:00,54.1,46.0,29.67,NE,45,0.0,0.0,74,0.00,,,0.00,meteohub,2013-09-17 03:44:00,
2013-09-17 16:46:00,47.3,43.3,29.66,East,90,0.0,0.0,86,0.00,,,0.00,meteohub,2013-09-17 03:46:00,
2013-09-17 16:47:00,47.3,43.3,29.66,East,90,0.0,0.0,86,0.00,,,0.00,meteohub,2013-09-17 03:47:00,
2013-09-17 16:49:00,54.0,45.9,29.67,NE,45,0.0,0.0,74,0.00,,,0.00,meteohub,2013-09-17 03:49:00,
2013-09-17 16:52:00,47.3,43.3,29.66,East,90,0.0,0.0,86,0.00,,,0.00,meteohub,2013-09-17 03:52:00,
2013-09-17 16:54:00,53.8,45.7,29.67,NE,45,0.0,0.0,74,0.00,,,0.00,meteohub,2013-09-17 03:54:00,
2013-09-17 16:55:00,47.3,43.3,29.67,East,90,0.0,0.0,86,0.00,,,0.00,meteohub,2013-09-17 03:55:00,
2013-09-17 16:57:00,47.1,43.2,29.66,East,90,0.0,0.0,86,0.00,,,0.00,meteohub,2013-09-17 03:57:00,
2013-09-17 16:58:00,47.1,43.2,29.66,East,90,0.0,0.0,86,0.00,,,0.00,meteohub,2013-09-17 03:58:00,
2013-09-17 16:59:00,53.6,45.5,29.68,NE,45,0.0,0.0,74,0.00,,,0.00,meteohub,2013-09-17 03:59:00,
2013-09-17 17:01:00,47.1,43.2,29.66,East,90,0.0,0.0,86,0.00,,,0.00,meteohub,2013-09-17 04:01:00,
2013-09-17 17:02:00,47.1,43.2,29.66,East,90,0.0,0.0,86,0.00,,,0.00,meteohub,2013-09-17 04:02:00,
2013-09-17 17:04:00,47.1,43.2,29.65,East,90,0.0,0.0,86,0.00,,,0.00,meteohub,2013-09-17 04:04:00,
2013-09-17 17:07:00,47.1,43.2,29.65,East,90,0.0,0.0,86,0.00,,,0.00,meteohub,2013-09-17 04:07:00,
2013-09-17 17:10:00,46.9,43.0,29.65,East,90,0.0,0.0,86,0.00,,,0.00,meteohub,2013-09-17 04:10:00,
2013-09-17 17:12:00,46.9,43.3,29.65,East,90,0.0,0.0,87,0.00,,,0.00,meteohub,2013-09-17 04:12:00,
2013-09-17 17:13:00,46.9,43.3,29.65,East,90,0.0,0.0,87,0.00,,,0.00,meteohub,2013-09-17 04:13:00,
2013-09-17 17:16:00,46.9,43.3,29.65,East,90,0.0,0.0,87,0.00,,,0.00,meteohub,2013-09-17 04:16:00,
2013-09-17 17:17:00,46.9,43.3,29.65,East,90,0.0,0.0,87,0.00,,,0.00,meteohub,2013-09-17 04:17:00,
2013-09-17 17:19:00,46.9,43.3,29.65,East,90,0.0,0.0,87,0.00,,,0.00,meteohub,2013-09-17 04:19:00,
2013-09-17 17:22:00,46.9,43.3,29.65,East,90,0.0,0.0,87,0.00,,,0.00,meteohub,2013-09-17 04:22:00,
2013-09-17 17:25:00,46.9,43.3,29.65,East,90,0.0,0.0,87,0.00,,,0.00,meteohub,2013-09-17 04:25:00,
2013-09-17 17:27:00,46.9,43.3,29.65,East,90,0.0,0.0,87,0.00,,,0.00,meteohub,2013-09-17 04:27:00,
2013-09-17 17:28:00,46.9,43.3,29.65,East,90,0.0,0.0,87,0.00,,,0.00,meteohub,2013-09-17 04:28:00,
2013-09-17 17:31:00,46.9,43.3,29.65,East,90,0.0,0.0,87,0.00,,,0.00,meteohub,2013-09-17 04:31:00,
2013-09-17 17:32:00,46.9,43.3,29.65,East,90,0.0,0.0,87,0.00,,,0.00,meteohub,2013-09-17 04:32:00,
2013-09-17 17:34:00,46.8,43.2,29.66,East,90,0.0,0.0,87,0.00,,,0.00,meteohub,2013-09-17 04:34:00,
2013-09-17 17:37:00,46.8,43.2,29.65,East,90,0.0,0.0,87,0.00,,,0.00,meteohub,2013-09-17 04:37:00,
2013-09-17 17:40:00,46.6,43.0,29.65,East,90,0.0,0.0,87,0.00,,,0.00,meteohub,2013-09-17 04:40:00,
2013-09-17 17:42:00,46.6,43.0,29.65,East,90,0.0,0.0,87,0.00,,,0.00,meteohub,2013-09-17 04:42:00,
2013-09-17 17:43:00,46.6,43.0,29.65,East,90,0.0,0.0,87,0.00,,,0.00,meteohub,2013-09-17 04:43:00,
2013-09-17 17:46:00,46.4,43.0,29.65,East,90,0.0,0.0,88,0.00,,,0.00,meteohub,2013-09-17 04:46:00,
2013-09-17 17:47:00,46.4,43.0,29.65,East,90,0.0,0.0,88,0.00,,,0.00,meteohub,2013-09-17 04:47:00,
2013-09-17 17:49:00,46.4,43.0,29.65,East,90,0.0,0.0,88,0.00,,,0.00,meteohub,2013-09-17 04:49:00,
2013-09-17 17:52:00,46.4,43.0,29.65,East,90,0.0,0.0,88,0.00,,,0.00,meteohub,2013-09-17 04:52:00,
2013-09-17 17:55:00,46.2,43.2,29.64,East,90,0.0,0.0,89,0.00,,,0.00,meteohub,2013-09-17 04:55:00,
2013-09-17 17:57:00,46.2,43.2,29.65,East,90,0.0,0.0,89,0.00,,,0.00,meteohub,2013-09-17 04:57:00,
2013-09-17 17:58:00,46.2,43.2,29.65,East,90,0.0,0.0,89,0.00,,,0.00,meteohub,2013-09-17 04:58:00,
2013-09-17 18:01:00,46.0,43.0,29.65,East,90,0.0,0.0,89,0.00,,,0.00,meteohub,2013-09-17 05:01:00,
2013-09-17 18:07:00,46.0,43.0,29.65,East,90,0.0,0.0,89,0.00,,,0.00,meteohub,2013-09-17 05:07:00,
2013-09-17 18:12:00,45.9,42.8,29.65,South,180,0.0,2.0,89,0.00,,,0.00,meteohub,2013-09-17 05:12:00,
2013-09-17 18:13:00,45.9,42.8,29.65,South,180,0.0,2.0,89,0.00,,,0.00,meteohub,2013-09-17 05:13:00,
2013-09-17 18:17:00,45.9,42.8,29.65,South,180,0.0,2.0,89,0.00,,,0.00,meteohub,2013-09-17 05:17:00,
2013-09-17 18:19:00,45.7,42.6,29.65,South,180,0.0,2.0,89,0.00,,,0.00,meteohub,2013-09-17 05:19:00,
2013-09-17 18:22:00,45.7,42.6,29.65,South,180,0.0,2.0,89,0.00,,,0.00,meteohub,2013-09-17 05:22:00,
2013-09-17 18:25:00,45.5,42.4,29.65,South,180,0.0,2.0,89,0.00,,,0.00,meteohub,2013-09-17 05:25:00,
2013-09-17 18:28:00,45.5,42.4,29.64,South,180,0.0,0.0,89,0.00,,,0.00,meteohub,2013-09-17 05:28:00,
2013-09-17 18:31:00,45.3,42.3,29.65,South,180,0.0,0.0,89,0.00,,,0.00,meteohub,2013-09-17 05:31:00,
2013-09-17 18:34:00,45.3,42.3,29.65,South,180,0.0,0.0,89,0.00,,,0.00,meteohub,2013-09-17 05:34:00,
2013-09-17 18:37:00,45.3,42.3,29.65,South,180,0.0,0.0,89,0.00,,,0.00,meteohub,2013-09-17 05:37:00,
2013-09-17 18:40:00,45.1,42.1,29.65,South,180,0.0,0.0,89,0.00,,,0.00,meteohub,2013-09-17 05:40:00,
2013-09-17 18:42:00,45.1,42.1,29.65,South,180,0.0,0.0,89,0.00,,,0.00,meteohub,2013-09-17 05:42:00,
2013-09-17 18:46:00,45.0,41.9,29.65,SSW,203,0.0,1.0,89,0.00,,,0.00,meteohub,2013-09-17 05:46:00,
2013-09-17 18:47:00,45.0,41.9,29.65,SSW,203,0.0,1.0,89,0.00,,,0.00,meteohub,2013-09-17 05:47:00,
2013-09-17 18:50:00,45.0,41.9,29.65,SSW,203,0.0,1.0,89,0.00,,,0.00,meteohub,2013-09-17 05:50:00,
2013-09-17 20:29:00,46.0,43.0,29.65,East,90,0.0,0.0,89,0.00,,,0.00,meteohub,2013-09-17 07:29:00,
2013-09-17 20:35:00,46.0,43.0,29.64,South,180,2.0,0.0,89,0.00,,,0.00,meteohub,2013-09-17 07:35:00,
2013-09-17 20:44:00,45.9,42.8,29.65,South,180,0.0,2.0,89,0.00,,,0.00,meteohub,2013-09-17 07:44:00,
2013-09-17 20:50:00,45.7,42.6,29.64,South,180,0.0,2.0,89,0.00,,,0.00,meteohub,2013-09-17 07:50:00,
2013-09-17 20:59:00,45.3,42.3,29.65,South,180,0.0,0.0,89,0.00,,,0.00,meteohub,2013-09-17 07:59:00,
2013-09-17 21:05:00,45.3,42.3,29.65,South,180,0.0,0.0,89,0.00,,,0.00,meteohub,2013-09-17 08:05:00,
2013-09-17 21:11:00,45.1,42.1,29.65,South,180,1.0,0.0,89,0.00,,,0.00,meteohub,2013-09-17 08:11:00,
2013-09-17 21:19:00,44.8,41.7,29.65,SSW,203,0.0,1.0,89,0.00,,,0.00,meteohub,2013-09-17 08:19:00,
2013-09-17 21:24:00,44.6,41.5,29.64,SSW,203,0.0,1.0,89,0.00,,,0.00,meteohub,2013-09-17 08:24:00,
2013-09-17 21:29:00,44.4,41.9,29.64,SSW,203,0.0,0.0,91,0.00,,,0.00,meteohub,2013-09-17 08:29:00,
2013-09-17 21:34:00,44.2,41.7,29.64,SSW,203,0.0,0.0,91,0.00,,,0.00,meteohub,2013-09-17 08:34:00,
2013-09-17 21:39:00,44.2,41.7,29.64,SSW,203,0.0,0.0,91,0.00,,,0.00,meteohub,2013-09-17 08:39:00,
2013-09-17 21:44:00,44.1,41.5,29.64,South,180,0.0,1.0,91,0.00,,,0.00,meteohub,2013-09-17 08:44:00,
2013-09-17 21:49:00,43.9,41.4,29.64,South,180,0.0,1.0,91,0.00,,,0.00,meteohub,2013-09-17 08:49:00,
2013-09-17 21:54:00,43.7,41.2,29.63,South,180,0.0,1.0,91,0.00,,,0.00,meteohub,2013-09-17 08:54:00,
2013-09-17 21:59:00,43.7,41.2,29.64,South,180,0.0,0.0,91,0.00,,,0.00,meteohub,2013-09-17 08:59:00,
2013-09-17 22:04:00,43.7,41.5,29.63,South,180,0.0,0.0,92,0.00,,,0.00,meteohub,2013-09-17 09:04:00,
2013-09-17 22:09:00,43.5,41.4,29.63,South,180,0.0,0.0,92,0.00,,,0.00,meteohub,2013-09-17 09:09:00,
2013-09-17 22:14:00,43.5,41.4,29.63,South,180,0.0,0.0,92,0.00,,,0.00,meteohub,2013-09-17 09:14:00,
2013-09-17 22:19:00,43.3,41.2,29.63,South,180,0.0,0.0,92,0.00,,,0.00,meteohub,2013-09-17 09:19:00,
2013-09-17 22:24:00,43.3,41.2,29.63,South,180,0.0,0.0,92,0.00,,,0.00,meteohub,2013-09-17 09:24:00,
2013-09-17 22:29:00,43.2,41.0,29.63,South,180,0.0,0.0,92,0.00,,,0.00,meteohub,2013-09-17 09:29:00,
2013-09-17 22:34:00,43.2,41.0,29.63,South,180,0.0,0.0,92,0.00,,,0.00,meteohub,2013-09-17 09:34:00,
2013-09-17 22:39:00,43.2,41.0,29.63,South,180,1.0,0.0,92,0.00,,,0.00,meteohub,2013-09-17 09:39:00,
2013-09-17 22:44:00,43.2,41.4,29.63,South,180,1.0,1.0,93,0.00,,,0.00,meteohub,2013-09-17 09:44:00,
2013-09-17 22:49:00,43.2,41.4,29.63,SW,225,0.0,1.0,93,0.00,,,0.00,meteohub,2013-09-17 09:49:00,
2013-09-17 22:54:00,43.3,41.5,29.63,SW,225,0.0,1.0,93,0.00,,,0.00,meteohub,2013-09-17 09:54:00,
2013-09-17 22:59:00,43.3,41.5,29.63,SW,225,0.0,1.0,93,0.00,,,0.00,meteohub,2013-09-17 09:59:00,
2013-09-17 23:04:00,43.3,41.5,29.63,SW,225,0.0,0.0,93,0.00,,,0.00,meteohub,2013-09-17 10:04:00,
2013-09-17 23:09:00,43.3,41.5,29.63,SW,225,0.0,0.0,93,0.00,,,0.00,meteohub,2013-09-17 10:09:00,
2013-09-17 23:14:00,43.3,41.5,29.62,SW,225,0.0,0.0,93,0.00,,,0.00,meteohub,2013-09-17 10:14:00,
2013-09-17 23:19:00,43.3,41.5,29.62,SW,225,0.0,0.0,93,0.00,,,0.00,meteohub,2013-09-17 10:19:00,
2013-09-17 23:24:00,43.2,41.4,29.62,SW,225,0.0,0.0,93,0.00,,,0.00,meteohub,2013-09-17 10:24:00,
2013-09-17 23:29:00,43.2,41.4,29.62,SW,225,0.0,0.0,93,0.00,,,0.00,meteohub,2013-09-17 10:29:00,
2013-09-17 23:34:00,43.2,41.4,29.62,SW,225,0.0,0.0,93,0.00,,,0.00,meteohub,2013-09-17 10:34:00,
2013-09-17 23:39:00,43.2,41.4,29.62,SW,225,0.0,0.0,93,0.00,,,0.00,meteohub,2013-09-17 10:39:00,
2013-09-17 23:44:00,43.2,41.4,29.63,SW,225,0.0,0.0,93,0.00,,,0.00,meteohub,2013-09-17 10:44:00,
2013-09-17 23:49:00,43.2,41.4,29.63,SW,225,0.0,1.0,93,0.00,,,0.00,meteohub,2013-09-17 10:49:00,
2013-09-17 23:54:00,43.0,41.2,29.63,SW,225,0.0,1.0,93,0.00,,,0.00,meteohub,2013-09-17 10:54:00,
2013-09-17 23:59:00,43.0,41.2,29.63,SW,225,0.0,1.0,93,0.00,,,0.00,meteohub,2013-09-17 10:59:00,